X  Blizu METAR Podaci o vazduhoplovstvu     LIPX Verona-Villafranca Valerio Catullo Airport
Temperatura
82°F Temperatura
61°F Tačka Rose
48% Vlaga



Vetar
2 MPS
3 KM/S
1 M/S
2 Čvorovi



Tiho
S
Trenutna situacija

Vedro Vedro
Vazdušni pritisak 1009.82 (hPa) - 29.82 (inHg)
Vidljivost 6 (Milje) - 9.7 (km)
Aerodrom
Aerodromski kod. LIPX

Lokacija: Verona-Villafranca Valerio Catullo Airport
Udaljenost: 0 (mi)

Metar:
LIPX 200850Z VRB02KT CAVOK 28/16 Q1010

Vreme: 20-07-2024 08:50 CEST